Crystal Symphony — C6MY5 — position and weather

sailwx.info

Track history (hours):
 
Tides and Currents Weather Stations Pressure Air Temp Water Temp Dewpoint Dewpoint Depression Visibility Wind Speed Wind Dir Waves Ship Positions

Crystal Symphony

Operator: Crystal Cruises

Last reported at 2017-Sep-20 00:30 UTC. Time now 2017-Sep-20 00:34 UTC.
Position N 38°43' W 009°07'.

Length 238 m; draft 8 m.

Type: Ship. MMSI: 309168000.

Date/timePositionNaut miles runAvg speedWind from/ knotsBaromVisibWave heightAir tempDewpointWater temp
2017-Sep-20 00:30N 38°43' W 009°07'0 0.0
2017-Sep-20 00:00N 38°43' W 009°07'0 0.0
2017-Sep-19 23:30N 38°43' W 009°07'0 0.0
2017-Sep-19 23:00N 38°43' W 009°07'0 0.0
2017-Sep-19 22:29N 38°43' W 009°07'0 0.0
2017-Sep-19 21:59N 38°43' W 009°07'0 0.0
2017-Sep-19 21:29N 38°43' W 009°07'0 0.0
2017-Sep-19 20:59N 38°43' W 009°07'0 0.0
2017-Sep-19 20:28N 38°43' W 009°07'0 0.0
2017-Sep-19 19:55N 38°43' W 009°07'0 0.0
2017-Sep-19 19:28N 38°43' W 009°07'0 0.0
2017-Sep-19 18:58N 38°43' W 009°07'0 0.0
2017-Sep-19 18:25N 38°43' W 009°07'0 0.0
2017-Sep-19 18:00N 38°43' W 009°07'0 0.0
2017-Sep-19 17:30N 38°43' W 009°07'0 0.0
2017-Sep-19 17:00N 38°43' W 009°07'0 0.0
2017-Sep-19 16:30N 38°43' W 009°07'0 0.0
2017-Sep-19 15:56N 38°43' W 009°07'0 0.0
2017-Sep-19 15:26N 38°43' W 009°07'0 0.0
2017-Sep-19 14:59N 38°43' W 009°07'0 0.0
2017-Sep-19 14:26N 38°43' W 009°07'0 0.0
2017-Sep-19 13:59N 38°43' W 009°07'0 0.0
2017-Sep-19 13:28N 38°43' W 009°07'0 0.0
2017-Sep-19 12:58N 38°43' W 009°07'0 0.0
2017-Sep-19 12:28N 38°43' W 009°07'0 0.0
2017-Sep-19 11:58N 38°43' W 009°07'0 0.0
2017-Sep-19 11:28N 38°43' W 009°07'0 0.0
2017-Sep-19 11:00N 38°43' W 009°07'0 0.0
2017-Sep-19 10:30N 38°43' W 009°07'0 0.0
2017-Sep-19 10:00N 38°43' W 009°07'0 0.0
2017-Sep-19 09:30N 38°43' W 009°07'0 0.0
2017-Sep-19 09:00N 38°43' W 009°07'0 0.0
2017-Sep-19 08:29N 38°43' W 009°07'0 0.0
2017-Sep-19 07:59N 38°43' W 009°07'0 0.0
2017-Sep-19 07:26N 38°43' W 009°07'0 0.0
2017-Sep-19 06:56N 38°43' W 009°07'0 0.0
2017-Sep-19 06:28N 38°43' W 009°07'0 0.0
2017-Sep-19 05:58N 38°43' W 009°07'0 0.0
2017-Sep-19 05:28N 38°43' W 009°07'0 0.0
2017-Sep-19 04:58N 38°43' W 009°07'0 0.0
2017-Sep-19 04:31N 38°43' W 009°07'0 1.0
2017-Sep-19 04:00N 38°42' W 009°08'4 8.6
2017-Sep-19 03:30N 38°41' W 009°13'4 8.3
2017-Sep-19 03:00N 38°41' W 009°18'510.1
2017-Sep-19 02:30N 38°37' W 009°22'5 9.5
2017-Sep-19 02:00N 38°33' W 009°25'5 9.5
2017-Sep-19 01:30N 38°28' W 009°26'510.2
2017-Sep-19 01:00N 38°23' W 009°27'510.6
2017-Sep-19 00:30N 38°18' W 009°28'510.8
2017-Sep-19 00:00N 38°12' W 009°29'510.8
2017-Sep-18 23:30N 38°07' W 009°30'510.6
2017-Sep-18 23:00N 38°02' W 009°31'510.9
2017-Sep-18 22:30N 37°56' W 009°33'511.0
2017-Sep-18 22:00N 37°51' W 009°34'510.7
2017-Sep-18 21:30N 37°46' W 009°35'611.1
2017-Sep-18 20:56N 37°39' W 009°36'1311.3
2017-Sep-18 19:46N 37°26' W 009°39'310.8
2017-Sep-18 19:30N 37°24' W 009°39'510.9
2017-Sep-18 19:00N 37°18' W 009°40'611.1
2017-Sep-18 18:30N 37°13' W 009°42'611.1
2017-Sep-18 18:00N 37°07' W 009°43'11511.0
2017-Sep-18 07:30N 35°22' W 008°44'295 7.5
2017-Sep-16 16:13N 30°34' W 009°58'417.2
2017-Sep-16 16:00N 30°31' W 009°54'917.7
2017-Sep-16 15:30N 30°26' W 009°46'714.4
2017-Sep-16 15:00N 30°25' W 009°38'1 2.4
2017-Sep-16 14:30N 30°26' W 009°39'0 0.0
2017-Sep-16 13:57N 30°26' W 009°39'0 0.0
2017-Sep-16 13:24N 30°26' W 009°39'0 0.0
2017-Sep-16 12:51N 30°26' W 009°39'0 0.0
2017-Sep-16 12:29N 30°26' W 009°39'0 0.0
2017-Sep-16 11:59N 30°26' W 009°39'0 0.0
2017-Sep-16 10:47N 30°26' W 009°39'0 0.0
2017-Sep-16 08:07N 30°26' W 009°39'0 0.0
2017-Sep-16 07:48N 30°26' W 009°39'0 0.0
2017-Sep-16 07:30N 30°26' W 009°39'0 0.0
2017-Sep-16 06:54N 30°26' W 009°39'0 0.0
2017-Sep-16 06:21N 30°26' W 009°39'0 0.1
2017-Sep-16 06:00N 30°26' W 009°39'1 2.9
2017-Sep-16 05:30N 30°24' W 009°38'816.6
2017-Sep-16 05:00N 30°22' W 009°48'1818.3
2017-Sep-16 04:00N 30°15' W 010°07'918.0
2017-Sep-16 03:30N 30°11' W 010°17'917.9
2017-Sep-16 03:00N 30°07' W 010°26'918.3
2017-Sep-16 02:30N 30°04' W 010°36'918.5
2017-Sep-16 02:00N 29°60' W 010°46'918.5
2017-Sep-16 01:30N 29°56' W 010°55'918.3
2017-Sep-16 01:00N 29°53' W 011°05'917.9
2017-Sep-16 00:30N 29°49' W 011°15'918.0
2017-Sep-16 00:00N 29°46' W 011°24'917.5
2017-Sep-15 23:30N 29°42' W 011°33'917.7
2017-Sep-15 23:00N 29°38' W 011°42'917.9
2017-Sep-15 22:30N 29°34' W 011°52'917.9
2017-Sep-15 22:00N 29°31' W 012°01'917.9
2017-Sep-15 21:30N 29°28' W 012°11'917.9
2017-Sep-15 21:00N 29°24' W 012°20'918.1
2017-Sep-15 20:30N 29°21' W 012°30'917.9
2017-Sep-15 20:00N 29°17' W 012°39'918.0
2017-Sep-15 19:30N 29°14' W 012°49'917.9
2017-Sep-15 19:00N 29°10' W 012°58'917.7
2017-Sep-15 18:30N 29°06' W 013°07'917.6
2017-Sep-15 18:00N 29°03' W 013°17'917.6
2017-Sep-15 17:30N 28°59' W 013°26'611.4
2017-Sep-15 17:00N 28°58' W 013°32'0 0.6
2017-Sep-15 16:25N 28°58' W 013°32'0 0.0
2017-Sep-15 15:58N 28°58' W 013°32'0 0.0
2017-Sep-15 15:30N 28°58' W 013°32'0 0.0
2017-Sep-15 15:00N 28°58' W 013°32'0 0.0
2017-Sep-15 14:30N 28°58' W 013°32'0 0.0
2017-Sep-15 14:00N 28°58' W 013°32'0 0.0
2017-Sep-15 13:30N 28°58' W 013°32'0 0.0
2017-Sep-15 12:59N 28°58' W 013°32'0 0.0
2017-Sep-15 12:29N 28°58' W 013°32'0 0.0
2017-Sep-15 11:59N 28°58' W 013°32'0 0.0
2017-Sep-15 11:29N 28°58' W 013°32'0 0.0
2017-Sep-15 10:58N 28°58' W 013°32'0 0.0
2017-Sep-15 10:28N 28°58' W 013°32'0 0.0
2017-Sep-15 09:58N 28°58' W 013°32'0 0.0
2017-Sep-15 09:28N 28°58' W 013°32'0 0.0
2017-Sep-15 08:58N 28°58' W 013°32'0 0.0
2017-Sep-15 08:30N 28°58' W 013°32'0 0.0
2017-Sep-15 08:00N 28°58' W 013°32'0 0.0
2017-Sep-15 07:30N 28°58' W 013°32'0 0.0
2017-Sep-15 07:00N 28°58' W 013°32'0 0.0
2017-Sep-15 06:26N 28°58' W 013°32'0 0.8
2017-Sep-15 06:00N 28°58' W 013°32'510.8
2017-Sep-15 05:30N 28°53' W 013°35'612.5
2017-Sep-15 05:00N 28°50' W 013°41'611.9
2017-Sep-15 04:30N 28°48' W 013°48'611.9
2017-Sep-15 04:00N 28°49' W 013°55'611.9
2017-Sep-15 03:30N 28°49' W 014°02'612.2
2017-Sep-15 03:00N 28°48' W 014°08'612.1
2017-Sep-15 02:30N 28°47' W 014°15'612.0
2017-Sep-15 02:00N 28°46' W 014°22'612.1
2017-Sep-15 01:30N 28°45' W 014°29'612.1
2017-Sep-15 01:00N 28°44' W 014°36'611.9
2017-Sep-15 00:29N 28°42' W 014°42'611.7
2017-Sep-14 23:59N 28°41' W 014°49'611.7
2017-Sep-14 23:30N 28°40' W 014°55'611.9
2017-Sep-14 23:00N 28°41' W 015°02'611.8
2017-Sep-14 22:30N 28°39' W 015°09'612.1
2017-Sep-14 22:00N 28°38' W 015°15'612.1
2017-Sep-14 21:30N 28°37' W 015°22'612.2
2017-Sep-14 21:00N 28°36' W 015°29'612.2
2017-Sep-14 20:30N 28°35' W 015°36'611.9
2017-Sep-14 20:00N 28°32' W 015°42'611.9
2017-Sep-14 19:30N 28°29' W 015°47'612.1
2017-Sep-14 19:00N 28°25' W 015°52'711.0
2017-Sep-14 18:23N 28°24' W 016°00'412.0
2017-Sep-14 18:00N 28°26' W 016°05'9 1.5
2017-Sep-14 12:08N 28°28' W 016°14'0 0.0
2017-Sep-14 06:44N 28°28' W 016°14'0 1.1
2017-Sep-14 06:18N 28°29' W 016°14'2 5.4
2017-Sep-14 05:55N 28°29' W 016°12'410.2
2017-Sep-14 05:30N 28°28' W 016°07'510.3
2017-Sep-14 04:59N 28°27' W 016°01'5 9.7
2017-Sep-14 04:30N 28°27' W 015°56'510.1
2017-Sep-14 04:01N 28°30' W 015°51'510.3
2017-Sep-14 03:31N 28°34' W 015°48'5 9.9
2017-Sep-14 03:00N 28°39' W 015°45'611.1
2017-Sep-14 02:26N 28°44' W 015°49'610.5
2017-Sep-14 01:53N 28°47' W 015°55'  
2017-Sep-11 04:33N 37°05' W 023°31'318.7
2017-Sep-11 04:24N 37°07' W 023°34'718.5
2017-Sep-11 04:00N 37°11' W 023°41'918.5
2017-Sep-11 03:30N 37°17' W 023°50'919.0
2017-Sep-11 03:00N 37°24' W 023°59'1019.1
2017-Sep-11 02:30N 37°30' W 024°08'918.9
2017-Sep-11 02:01N 37°36' W 024°17'1018.9
2017-Sep-11 01:30N 37°42' W 024°26'918.9
2017-Sep-11 01:00N 37°49' W 024°35'918.8
2017-Sep-11 00:30N 37°55' W 024°44'1019.1
2017-Sep-11 00:00N 38°01' W 024°53'918.7
2017-Sep-10 23:31N 38°06' W 025°03'1019.0
2017-Sep-10 23:00N 38°09' W 025°14'918.6
2017-Sep-10 22:30N 38°13' W 025°25'918.3
2017-Sep-10 22:00N 38°16' W 025°36'918.3
2017-Sep-10 21:30N 38°20' W 025°47'918.6
2017-Sep-10 21:00N 38°23' W 025°58'918.4
2017-Sep-10 20:31N 38°27' W 026°09'918.6
2017-Sep-10 20:00N 38°30' W 026°20'918.7
2017-Sep-10 19:30N 38°34' W 026°31'20 1.6
2017-Sep-10 06:28N 38°39' W 026°56'511.7
2017-Sep-10 06:00N 38°35' W 026°52'611.4
2017-Sep-10 05:30N 38°30' W 026°48'510.9
2017-Sep-10 05:00N 38°25' W 026°46'5 9.9
2017-Sep-10 04:30N 38°20' W 026°47'611.6
2017-Sep-10 04:00N 38°16' W 026°52'611.5
2017-Sep-10 03:30N 38°11' W 026°56'611.2
2017-Sep-10 03:00N 38°07' W 027°01'510.8
2017-Sep-10 02:31N 38°03' W 027°05'510.2
2017-Sep-10 02:00N 37°58' W 027°06'510.3
2017-Sep-10 01:30N 37°53' W 027°03'510.9
2017-Sep-10 01:00N 37°48' W 027°01'611.5
2017-Sep-10 00:30N 37°44' W 026°55'  
Track history (hours):
 
Tides and Currents Weather Stations Pressure Air Temp Water Temp Dewpoint Dewpoint Depression Visibility Wind Speed Wind Dir Waves Ship Positions

Crystal Symphony

Operator: Crystal Cruises

Last reported at 2017-Sep-20 00:30 UTC. Time now 2017-Sep-20 00:34 UTC.
Position N 38°43' W 009°07'.

Length 238 m; draft 8 m.

Type: Ship. MMSI: 309168000.

Date/timePositionNaut miles runAvg speedWind from/ knotsBaromVisibWave heightAir tempDewpointWater temp
2017-Sep-20 00:30N 38°43' W 009°07'0 0.0
2017-Sep-20 00:00N 38°43' W 009°07'0 0.0
2017-Sep-19 23:30N 38°43' W 009°07'0 0.0
2017-Sep-19 23:00N 38°43' W 009°07'0 0.0
2017-Sep-19 22:29N 38°43' W 009°07'0 0.0
2017-Sep-19 21:59N 38°43' W 009°07'0 0.0
2017-Sep-19 21:29N 38°43' W 009°07'0 0.0
2017-Sep-19 20:59N 38°43' W 009°07'0 0.0
2017-Sep-19 20:28N 38°43' W 009°07'0 0.0
2017-Sep-19 19:55N 38°43' W 009°07'0 0.0
2017-Sep-19 19:28N 38°43' W 009°07'0 0.0
2017-Sep-19 18:58N 38°43' W 009°07'0 0.0
2017-Sep-19 18:25N 38°43' W 009°07'0 0.0
2017-Sep-19 18:00N 38°43' W 009°07'0 0.0
2017-Sep-19 17:30N 38°43' W 009°07'0 0.0
2017-Sep-19 17:00N 38°43' W 009°07'0 0.0
2017-Sep-19 16:30N 38°43' W 009°07'0 0.0
2017-Sep-19 15:56N 38°43' W 009°07'0 0.0
2017-Sep-19 15:26N 38°43' W 009°07'0 0.0
2017-Sep-19 14:59N 38°43' W 009°07'0 0.0
2017-Sep-19 14:26N 38°43' W 009°07'0 0.0
2017-Sep-19 13:59N 38°43' W 009°07'0 0.0
2017-Sep-19 13:28N 38°43' W 009°07'0 0.0
2017-Sep-19 12:58N 38°43' W 009°07'0 0.0
2017-Sep-19 12:28N 38°43' W 009°07'0 0.0
2017-Sep-19 11:58N 38°43' W 009°07'0 0.0
2017-Sep-19 11:28N 38°43' W 009°07'0 0.0
2017-Sep-19 11:00N 38°43' W 009°07'0 0.0
2017-Sep-19 10:30N 38°43' W 009°07'0 0.0
2017-Sep-19 10:00N 38°43' W 009°07'0 0.0
2017-Sep-19 09:30N 38°43' W 009°07'0 0.0
2017-Sep-19 09:00N 38°43' W 009°07'0 0.0
2017-Sep-19 08:29N 38°43' W 009°07'0 0.0
2017-Sep-19 07:59N 38°43' W 009°07'0 0.0
2017-Sep-19 07:26N 38°43' W 009°07'0 0.0
2017-Sep-19 06:56N 38°43' W 009°07'0 0.0
2017-Sep-19 06:28N 38°43' W 009°07'0 0.0
2017-Sep-19 05:58N 38°43' W 009°07'0 0.0
2017-Sep-19 05:28N 38°43' W 009°07'0 0.0
2017-Sep-19 04:58N 38°43' W 009°07'0 0.0
2017-Sep-19 04:31N 38°43' W 009°07'0 1.0
2017-Sep-19 04:00N 38°42' W 009°08'4 8.6
2017-Sep-19 03:30N 38°41' W 009°13'4 8.3
2017-Sep-19 03:00N 38°41' W 009°18'510.1
2017-Sep-19 02:30N 38°37' W 009°22'5 9.5
2017-Sep-19 02:00N 38°33' W 009°25'5 9.5
2017-Sep-19 01:30N 38°28' W 009°26'510.2
2017-Sep-19 01:00N 38°23' W 009°27'510.6
2017-Sep-19 00:30N 38°18' W 009°28'510.8
2017-Sep-19 00:00N 38°12' W 009°29'510.8
2017-Sep-18 23:30N 38°07' W 009°30'510.6
2017-Sep-18 23:00N 38°02' W 009°31'510.9
2017-Sep-18 22:30N 37°56' W 009°33'511.0
2017-Sep-18 22:00N 37°51' W 009°34'510.7
2017-Sep-18 21:30N 37°46' W 009°35'611.1
2017-Sep-18 20:56N 37°39' W 009°36'1311.3
2017-Sep-18 19:46N 37°26' W 009°39'310.8
2017-Sep-18 19:30N 37°24' W 009°39'510.9
2017-Sep-18 19:00N 37°18' W 009°40'611.1
2017-Sep-18 18:30N 37°13' W 009°42'611.1
2017-Sep-18 18:00N 37°07' W 009°43'11511.0
2017-Sep-18 07:30N 35°22' W 008°44'295 7.5
2017-Sep-16 16:13N 30°34' W 009°58'417.2
2017-Sep-16 16:00N 30°31' W 009°54'917.7
2017-Sep-16 15:30N 30°26' W 009°46'714.4
2017-Sep-16 15:00N 30°25' W 009°38'1 2.4
2017-Sep-16 14:30N 30°26' W 009°39'0 0.0
2017-Sep-16 13:57N 30°26' W 009°39'0 0.0
2017-Sep-16 13:24N 30°26' W 009°39'0 0.0
2017-Sep-16 12:51N 30°26' W 009°39'0 0.0
2017-Sep-16 12:29N 30°26' W 009°39'0 0.0
2017-Sep-16 11:59N 30°26' W 009°39'0 0.0
2017-Sep-16 10:47N 30°26' W 009°39'0 0.0
2017-Sep-16 08:07N 30°26' W 009°39'0 0.0
2017-Sep-16 07:48N 30°26' W 009°39'0 0.0
2017-Sep-16 07:30N 30°26' W 009°39'0 0.0
2017-Sep-16 06:54N 30°26' W 009°39'0 0.0
2017-Sep-16 06:21N 30°26' W 009°39'0 0.1
2017-Sep-16 06:00N 30°26' W 009°39'1 2.9
2017-Sep-16 05:30N 30°24' W 009°38'816.6
2017-Sep-16 05:00N 30°22' W 009°48'1818.3
2017-Sep-16 04:00N 30°15' W 010°07'918.0
2017-Sep-16 03:30N 30°11' W 010°17'917.9
2017-Sep-16 03:00N 30°07' W 010°26'918.3
2017-Sep-16 02:30N 30°04' W 010°36'918.5
2017-Sep-16 02:00N 29°60' W 010°46'918.5
2017-Sep-16 01:30N 29°56' W 010°55'918.3
2017-Sep-16 01:00N 29°53' W 011°05'917.9
2017-Sep-16 00:30N 29°49' W 011°15'918.0
2017-Sep-16 00:00N 29°46' W 011°24'917.5
2017-Sep-15 23:30N 29°42' W 011°33'917.7
2017-Sep-15 23:00N 29°38' W 011°42'917.9
2017-Sep-15 22:30N 29°34' W 011°52'917.9
2017-Sep-15 22:00N 29°31' W 012°01'917.9
2017-Sep-15 21:30N 29°28' W 012°11'917.9
2017-Sep-15 21:00N 29°24' W 012°20'918.1
2017-Sep-15 20:30N 29°21' W 012°30'917.9
2017-Sep-15 20:00N 29°17' W 012°39'918.0
2017-Sep-15 19:30N 29°14' W 012°49'917.9
2017-Sep-15 19:00N 29°10' W 012°58'917.7
2017-Sep-15 18:30N 29°06' W 013°07'917.6
2017-Sep-15 18:00N 29°03' W 013°17'917.6
2017-Sep-15 17:30N 28°59' W 013°26'611.4
2017-Sep-15 17:00N 28°58' W 013°32'0 0.6
2017-Sep-15 16:25N 28°58' W 013°32'0 0.0
2017-Sep-15 15:58N 28°58' W 013°32'0 0.0
2017-Sep-15 15:30N 28°58' W 013°32'0 0.0
2017-Sep-15 15:00N 28°58' W 013°32'0 0.0
2017-Sep-15 14:30N 28°58' W 013°32'0 0.0
2017-Sep-15 14:00N 28°58' W 013°32'0 0.0
2017-Sep-15 13:30N 28°58' W 013°32'0 0.0
2017-Sep-15 12:59N 28°58' W 013°32'0 0.0
2017-Sep-15 12:29N 28°58' W 013°32'0 0.0
2017-Sep-15 11:59N 28°58' W 013°32'0 0.0
2017-Sep-15 11:29N 28°58' W 013°32'0 0.0
2017-Sep-15 10:58N 28°58' W 013°32'0 0.0
2017-Sep-15 10:28N 28°58' W 013°32'0 0.0
2017-Sep-15 09:58N 28°58' W 013°32'0 0.0
2017-Sep-15 09:28N 28°58' W 013°32'0 0.0
2017-Sep-15 08:58N 28°58' W 013°32'0 0.0
2017-Sep-15 08:30N 28°58' W 013°32'0 0.0
2017-Sep-15 08:00N 28°58' W 013°32'0 0.0
2017-Sep-15 07:30N 28°58' W 013°32'0 0.0
2017-Sep-15 07:00N 28°58' W 013°32'0 0.0
2017-Sep-15 06:26N 28°58' W 013°32'0 0.8
2017-Sep-15 06:00N 28°58' W 013°32'510.8
2017-Sep-15 05:30N 28°53' W 013°35'612.5
2017-Sep-15 05:00N 28°50' W 013°41'611.9
2017-Sep-15 04:30N 28°48' W 013°48'611.9
2017-Sep-15 04:00N 28°49' W 013°55'611.9
2017-Sep-15 03:30N 28°49' W 014°02'612.2
2017-Sep-15 03:00N 28°48' W 014°08'612.1
2017-Sep-15 02:30N 28°47' W 014°15'612.0
2017-Sep-15 02:00N 28°46' W 014°22'612.1
2017-Sep-15 01:30N 28°45' W 014°29'612.1
2017-Sep-15 01:00N 28°44' W 014°36'611.9
2017-Sep-15 00:29N 28°42' W 014°42'611.7
2017-Sep-14 23:59N 28°41' W 014°49'611.7
2017-Sep-14 23:30N 28°40' W 014°55'611.9
2017-Sep-14 23:00N 28°41' W 015°02'611.8
2017-Sep-14 22:30N 28°39' W 015°09'612.1
2017-Sep-14 22:00N 28°38' W 015°15'612.1
2017-Sep-14 21:30N 28°37' W 015°22'612.2
2017-Sep-14 21:00N 28°36' W 015°29'612.2
2017-Sep-14 20:30N 28°35' W 015°36'611.9
2017-Sep-14 20:00N 28°32' W 015°42'611.9
2017-Sep-14 19:30N 28°29' W 015°47'612.1
2017-Sep-14 19:00N 28°25' W 015°52'711.0
2017-Sep-14 18:23N 28°24' W 016°00'412.0
2017-Sep-14 18:00N 28°26' W 016°05'9 1.5
2017-Sep-14 12:08N 28°28' W 016°14'0 0.0
2017-Sep-14 06:44N 28°28' W 016°14'0 1.1
2017-Sep-14 06:18N 28°29' W 016°14'2 5.4
2017-Sep-14 05:55N 28°29' W 016°12'410.2
2017-Sep-14 05:30N 28°28' W 016°07'510.3
2017-Sep-14 04:59N 28°27' W 016°01'5 9.7
2017-Sep-14 04:30N 28°27' W 015°56'510.1
2017-Sep-14 04:01N 28°30' W 015°51'510.3
2017-Sep-14 03:31N 28°34' W 015°48'5 9.9
2017-Sep-14 03:00N 28°39' W 015°45'611.1
2017-Sep-14 02:26N 28°44' W 015°49'610.5
2017-Sep-14 01:53N 28°47' W 015°55'  
2017-Sep-11 04:33N 37°05' W 023°31'318.7
2017-Sep-11 04:24N 37°07' W 023°34'718.5
2017-Sep-11 04:00N 37°11' W 023°41'918.5
2017-Sep-11 03:30N 37°17' W 023°50'919.0
2017-Sep-11 03:00N 37°24' W 023°59'1019.1
2017-Sep-11 02:30N 37°30' W 024°08'918.9
2017-Sep-11 02:01N 37°36' W 024°17'1018.9
2017-Sep-11 01:30N 37°42' W 024°26'918.9
2017-Sep-11 01:00N 37°49' W 024°35'918.8
2017-Sep-11 00:30N 37°55' W 024°44'1019.1
2017-Sep-11 00:00N 38°01' W 024°53'918.7
2017-Sep-10 23:31N 38°06' W 025°03'1019.0
2017-Sep-10 23:00N 38°09' W 025°14'918.6
2017-Sep-10 22:30N 38°13' W 025°25'918.3
2017-Sep-10 22:00N 38°16' W 025°36'918.3
2017-Sep-10 21:30N 38°20' W 025°47'918.6
2017-Sep-10 21:00N 38°23' W 025°58'918.4
2017-Sep-10 20:31N 38°27' W 026°09'918.6
2017-Sep-10 20:00N 38°30' W 026°20'918.7
2017-Sep-10 19:30N 38°34' W 026°31'20 1.6
2017-Sep-10 06:28N 38°39' W 026°56'511.7
2017-Sep-10 06:00N 38°35' W 026°52'611.4
2017-Sep-10 05:30N 38°30' W 026°48'510.9
2017-Sep-10 05:00N 38°25' W 026°46'5 9.9
2017-Sep-10 04:30N 38°20' W 026°47'611.6
2017-Sep-10 04:00N 38°16' W 026°52'611.5
2017-Sep-10 03:30N 38°11' W 026°56'611.2
2017-Sep-10 03:00N 38°07' W 027°01'510.8
2017-Sep-10 02:31N 38°03' W 027°05'510.2
2017-Sep-10 02:00N 37°58' W 027°06'510.3
2017-Sep-10 01:30N 37°53' W 027°03'510.9
2017-Sep-10 01:00N 37°48' W 027°01'611.5
2017-Sep-10 00:30N 37°44' W 026°55'  

Dump ship's entire track history